A touch breezy?

This forum has been developed to discuss aviation related topics.

Moderators: ahramin, sky's the limit, sepia, Sulako, lilfssister, North Shore, I WAS Birddog

Post Reply
Message
Author
North Shore
Rank Moderator
Rank Moderator
Posts: 5172
Joined: Mon Feb 16, 2004 3:47 pm
Location: Straight outta Dundarave...

A touch breezy?

#1 Post by North Shore » Wed Sep 06, 2017 9:22 am

:shock:
TNCM 061121Z 0612/0712 300120G140KT 1SM +RA BKN015 OVC030
---------- ADS -----------
Say, what's that mountain goat doing up here in the mist?

Ass, Licence, Job. In that order.

digits_
Rank 8
Rank 8
Posts: 984
Joined: Mon Feb 14, 2011 2:26 am

Re: A touch breezy?

#2 Post by digits_ » Wed Sep 06, 2017 10:42 am

I'm surprised there is no variable wind direction at those speeds. Pretty need though!
---------- ADS -----------

linecrew
Rank (9)
Rank (9)
Posts: 1633
Joined: Fri Feb 20, 2004 6:53 am
Location: On final so get off the damn runway!

Re: A touch breezy?

#3 Post by linecrew » Wed Sep 06, 2017 11:25 am

San Juan:

TJSJ 061756Z COR 34021G39KT 4SM -RA BR FEW021 BKN029 OVC060 28/26 A2960 RMK AO2 PK WND 33039/1750 PRESFR SLP022 LAST OBSERVATION DUE TO HURICANE EVACUATING SJU TWR P0002 60072 T02780256 10300 20239 58063
---------- ADS -----------

linecrew
Rank (9)
Rank (9)
Posts: 1633
Joined: Fri Feb 20, 2004 6:53 am
Location: On final so get off the damn runway!

Re: A touch breezy?

#4 Post by linecrew » Wed Sep 06, 2017 11:31 am

North Shore wrote::shock:
TNCM 061121Z 0612/0712 300120G140KT 1SM +RA BKN015 OVC030
Airport was destroyed: http://www.dailymail.co.uk/news/article ... -Irma.html
---------- ADS -----------

CpnCrunch
Rank 10
Rank 10
Posts: 2566
Joined: Mon Feb 08, 2010 9:38 am

Re: A touch breezy?

#5 Post by CpnCrunch » Wed Sep 06, 2017 12:42 pm

digits_ wrote:I'm surprised there is no variable wind direction at those speeds. Pretty need though!
Isn't wind direction normally fairly steady with a large low pressure system like that?
---------- ADS -----------

trey kule
Rank 11
Rank 11
Posts: 4214
Joined: Fri Aug 19, 2005 7:09 pm

Re: A touch breezy?

#6 Post by trey kule » Wed Sep 06, 2017 1:05 pm

.............
---------- ADS -----------
Last edited by trey kule on Wed Sep 06, 2017 1:07 pm, edited 1 time in total.

digits_
Rank 8
Rank 8
Posts: 984
Joined: Mon Feb 14, 2011 2:26 am

Re: A touch breezy?

#7 Post by digits_ » Wed Sep 06, 2017 1:06 pm

CpnCrunch wrote:
digits_ wrote:I'm surprised there is no variable wind direction at those speeds. Pretty need though!
Isn't wind direction normally fairly steady with a large low pressure system like that?
I have no idea.

I was hoping for the hurricane experts around here to clarify :mrgreen:
---------- ADS -----------

Post Reply

Return to “General Comments”